sensor_id;sensor_type;location;lat;lon;timestamp;P1;P2;P0
64138;PMS5003;50435;43.700;-79.318;2023-02-01T00:00:35;7;7;
64138;PMS5003;50435;43.700;-79.318;2023-02-01T00:03:02;6;6;
64138;PMS5003;50435;43.700;-79.318;2023-02-01T00:05:30;9;9;
64138;PMS5003;50435;43.700;-79.318;2023-02-01T00:07:57;9;9;
64138;PMS5003;50435;43.700;-79.318;2023-02-01T00:10:25;7;7;
64138;PMS5003;50435;43.700;-79.318;2023-02-01T00:12:52;7;7;
64138;PMS5003;50435;43.700;-79.318;2023-02-01T00:15:20;6;6;
64138;PMS5003;50435;43.700;-79.318;2023-02-01T00:17:47;6;6;
64138;PMS5003;50435;43.700;-79.318;2023-02-01T00:20:18;6;6;
64138;PMS5003;50435;43.700;-79.318;2023-02-01T00:22:46;9;9;
64138;PMS5003;50435;43.700;-79.318;2023-02-01T00:25:13;9;9;
64138;PMS5003;50435;43.700;-79.318;2023-02-01T00:27:41;7;6;
64138;PMS5003;50435;43.700;-79.318;2023-02-01T00:30:09;7;7;
64138;PMS5003;50435;43.700;-79.318;2023-02-01T00:32:38;7;7;
64138;PMS5003;50435;43.700;-79.318;2023-02-01T00:35:05;9;9;
64138;PMS5003;50435;43.700;-79.318;2023-02-01T00:37:34;15;10;
64138;PMS5003;50435;43.700;-79.318;2023-02-01T00:40:02;11;11;
64138;PMS5003;50435;43.700;-79.318;2023-02-01T00:42:30;11;10;
64138;PMS5003;50435;43.700;-79.318;2023-02-01T00:44:57;10;9;
64138;PMS5003;50435;43.700;-79.318;2023-02-01T00:47:25;11;11;
64138;PMS5003;50435;43.700;-79.318;2023-02-01T00:49:53;9;9;
64138;PMS5003;50435;43.700;-79.318;2023-02-01T00:52:20;11;11;
64138;PMS5003;50435;43.700;-79.318;2023-02-01T00:54:48;11;10;
64138;PMS5003;50435;43.700;-79.318;2023-02-01T00:57:15;9;9;
64138;PMS5003;50435;43.700;-79.318;2023-02-01T00:59:43;10;10;
64138;PMS5003;50435;43.700;-79.318;2023-02-01T01:02:10;11;10;
64138;PMS5003;50435;43.700;-79.318;2023-02-01T01:04:38;11;10;
64138;PMS5003;50435;43.700;-79.318;2023-02-01T01:07:05;10;9;
64138;PMS5003;50435;43.700;-79.318;2023-02-01T01:09:33;12;11;
64138;PMS5003;50435;43.700;-79.318;2023-02-01T01:12:00;11;11;
64138;PMS5003;50435;43.700;-79.318;2023-02-01T01:14:28;7;7;
64138;PMS5003;50435;43.700;-79.318;2023-02-01T01:16:55;14;12;
64138;PMS5003;50435;43.700;-79.318;2023-02-01T01:19:23;11;10;
64138;PMS5003;50435;43.700;-79.318;2023-02-01T01:21:50;11;11;
64138;PMS5003;50435;43.700;-79.318;2023-02-01T01:24:18;11;10;
64138;PMS5003;50435;43.700;-79.318;2023-02-01T01:26:46;14;11;
64138;PMS5003;50435;43.700;-79.318;2023-02-01T01:29:13;7;7;
64138;PMS5003;50435;43.700;-79.318;2023-02-01T01:31:41;10;9;
64138;PMS5003;50435;43.700;-79.318;2023-02-01T01:34:08;10;9;
64138;PMS5003;50435;43.700;-79.318;2023-02-01T01:36:36;9;9;
64138;PMS5003;50435;43.700;-79.318;2023-02-01T01:39:03;10;10;
64138;PMS5003;50435;43.700;-79.318;2023-02-01T01:41:31;11;11;
64138;PMS5003;50435;43.700;-79.318;2023-02-01T01:44:00;15;15;
64138;PMS5003;50435;43.700;-79.318;2023-02-01T01:46:30;14;11;
64138;PMS5003;50435;43.700;-79.318;2023-02-01T01:49:01;9;9;
64138;PMS5003;50435;43.700;-79.318;2023-02-01T01:51:35;12;12;
64138;PMS5003;50435;43.700;-79.318;2023-02-01T01:54:06;14;12;
64138;PMS5003;50435;43.700;-79.318;2023-02-01T01:56:37;11;11;
64138;PMS5003;50435;43.700;-79.318;2023-02-01T01:59:05;13;13;
64138;PMS5003;50435;43.700;-79.318;2023-02-01T02:01:34;12;11;
64138;PMS5003;50435;43.700;-79.318;2023-02-01T02:04:01;12;12;
64138;PMS5003;50435;43.700;-79.318;2023-02-01T02:06:34;12;11;
64138;PMS5003;50435;43.700;-79.318;2023-02-01T02:09:07;12;10;
64138;PMS5003;50435;43.700;-79.318;2023-02-01T02:11:34;15;15;
64138;PMS5003;50435;43.700;-79.318;2023-02-01T02:14:01;12;11;
64138;PMS5003;50435;43.700;-79.318;2023-02-01T02:16:40;16;14;
64138;PMS5003;50435;43.700;-79.318;2023-02-01T02:19:28;14;12;
64138;PMS5003;50435;43.700;-79.318;2023-02-01T02:22:17;19;12;
64138;PMS5003;50435;43.700;-79.318;2023-02-01T02:25:15;11;11;
64138;PMS5003;50435;43.700;-79.318;2023-02-01T02:28:06;11;11;
64138;PMS5003;50435;43.700;-79.318;2023-02-01T02:30:53;11;11;
64138;PMS5003;50435;43.700;-79.318;2023-02-01T02:33:42;14;11;
64138;PMS5003;50435;43.700;-79.318;2023-02-01T02:36:26;12;10;
64138;PMS5003;50435;43.700;-79.318;2023-02-01T02:39:03;11;11;
64138;PMS5003;50435;43.700;-79.318;2023-02-01T02:41:38;12;12;
64138;PMS5003;50435;43.700;-79.318;2023-02-01T02:44:18;14;14;
64138;PMS5003;50435;43.700;-79.318;2023-02-01T02:46:55;14;14;
64138;PMS5003;50435;43.700;-79.318;2023-02-01T02:49:33;10;10;
64138;PMS5003;50435;43.700;-79.318;2023-02-01T02:52:04;11;10;
64138;PMS5003;50435;43.700;-79.318;2023-02-01T02:54:37;13;13;
64138;PMS5003;50435;43.700;-79.318;2023-02-01T02:57:10;10;10;
64138;PMS5003;50435;43.700;-79.318;2023-02-01T02:59:42;12;12;
64138;PMS5003;50435;43.700;-79.318;2023-02-01T03:02:12;15;13;
64138;PMS5003;50435;43.700;-79.318;2023-02-01T03:04:40;15;14;
64138;PMS5003;50435;43.700;-79.318;2023-02-01T03:07:15;14;10;
64138;PMS5003;50435;43.700;-79.318;2023-02-01T03:10:24;10;7;
64138;PMS5003;50435;43.700;-79.318;2023-02-01T03:13:00;13;13;
64138;PMS5003;50435;43.700;-79.318;2023-02-01T03:15:32;10;10;
64138;PMS5003;50435;43.700;-79.318;2023-02-01T03:18:03;11;10;
64138;PMS5003;50435;43.700;-79.318;2023-02-01T03:20:38;10;10;
64138;PMS5003;50435;43.700;-79.318;2023-02-01T03:23:10;10;10;
64138;PMS5003;50435;43.700;-79.318;2023-02-01T03:25:42;11;11;
64138;PMS5003;50435;43.700;-79.318;2023-02-01T03:28:11;9;7;
64138;PMS5003;50435;43.700;-79.318;2023-02-01T03:30:38;14;11;
64138;PMS5003;50435;43.700;-79.318;2023-02-01T03:33:09;14;14;
64138;PMS5003;50435;43.700;-79.318;2023-02-01T03:35:40;9;9;
64138;PMS5003;50435;43.700;-79.318;2023-02-01T03:38:17;11;11;
64138;PMS5003;50435;43.700;-79.318;2023-02-01T03:40:50;10;10;
64138;PMS5003;50435;43.700;-79.318;2023-02-01T03:43:20;11;11;
64138;PMS5003;50435;43.700;-79.318;2023-02-01T03:45:52;13;13;
64138;PMS5003;50435;43.700;-79.318;2023-02-01T03:48:26;14;11;
64138;PMS5003;50435;43.700;-79.318;2023-02-01T03:50:55;14;14;
64138;PMS5003;50435;43.700;-79.318;2023-02-01T03:53:27;10;10;
64138;PMS5003;50435;43.700;-79.318;2023-02-01T03:55:55;11;11;
64138;PMS5003;50435;43.700;-79.318;2023-02-01T03:58:24;14;14;
64138;PMS5003;50435;43.700;-79.318;2023-02-01T04:00:52;13;13;
64138;PMS5003;50435;43.700;-79.318;2023-02-01T04:03:21;11;11;
64138;PMS5003;50435;43.700;-79.318;2023-02-01T04:05:49;13;13;
64138;PMS5003;50435;43.700;-79.318;2023-02-01T04:08:17;14;14;
64138;PMS5003;50435;43.700;-79.318;2023-02-01T04:10:47;17;14;
64138;PMS5003;50435;43.700;-79.318;2023-02-01T04:13:15;14;14;
64138;PMS5003;50435;43.700;-79.318;2023-02-01T04:15:42;14;14;
64138;PMS5003;50435;43.700;-79.318;2023-02-01T04:18:10;14;14;
64138;PMS5003;50435;43.700;-79.318;2023-02-01T04:20:37;14;13;
64138;PMS5003;50435;43.700;-79.318;2023-02-01T04:23:05;18;15;
64138;PMS5003;50435;43.700;-79.318;2023-02-01T04:25:33;18;18;
64138;PMS5003;50435;43.700;-79.318;2023-02-01T04:28:00;14;13;
64138;PMS5003;50435;43.700;-79.318;2023-02-01T04:30:27;14;14;
64138;PMS5003;50435;43.700;-79.318;2023-02-01T04:32:55;18;18;
64138;PMS5003;50435;43.700;-79.318;2023-02-01T04:35:22;17;14;
64138;PMS5003;50435;43.700;-79.318;2023-02-01T04:37:49;17;17;
64138;PMS5003;50435;43.700;-79.318;2023-02-01T04:40:17;19;18;
64138;PMS5003;50435;43.700;-79.318;2023-02-01T04:42:44;21;18;
64138;PMS5003;50435;43.700;-79.318;2023-02-01T04:45:12;15;15;
64138;PMS5003;50435;43.700;-79.318;2023-02-01T04:47:39;15;15;
64138;PMS5003;50435;43.700;-79.318;2023-02-01T04:50:07;17;17;
64138;PMS5003;50435;43.700;-79.318;2023-02-01T04:52:35;17;14;
64138;PMS5003;50435;43.700;-79.318;2023-02-01T04:55:03;15;15;
64138;PMS5003;50435;43.700;-79.318;2023-02-01T04:57:31;22;21;
64138;PMS5003;50435;43.700;-79.318;2023-02-01T04:59:59;19;17;
64138;PMS5003;50435;43.700;-79.318;2023-02-01T05:02:26;17;17;
64138;PMS5003;50435;43.700;-79.318;2023-02-01T05:04:54;13;13;
64138;PMS5003;50435;43.700;-79.318;2023-02-01T05:07:21;14;11;
64138;PMS5003;50435;43.700;-79.318;2023-02-01T05:09:49;13;13;
64138;PMS5003;50435;43.700;-79.318;2023-02-01T05:12:17;10;10;
64138;PMS5003;50435;43.700;-79.318;2023-02-01T05:14:44;11;11;
64138;PMS5003;50435;43.700;-79.318;2023-02-01T05:17:12;13;11;
64138;PMS5003;50435;43.700;-79.318;2023-02-01T05:19:39;14;11;
64138;PMS5003;50435;43.700;-79.318;2023-02-01T05:22:06;10;10;
64138;PMS5003;50435;43.700;-79.318;2023-02-01T05:24:34;15;15;
64138;PMS5003;50435;43.700;-79.318;2023-02-01T05:27:02;14;13;
64138;PMS5003;50435;43.700;-79.318;2023-02-01T05:29:29;14;13;
64138;PMS5003;50435;43.700;-79.318;2023-02-01T05:31:57;10;10;
64138;PMS5003;50435;43.700;-79.318;2023-02-01T05:34:24;10;10;
64138;PMS5003;50435;43.700;-79.318;2023-02-01T05:36:52;10;10;
64138;PMS5003;50435;43.700;-79.318;2023-02-01T05:39:20;17;11;
64138;PMS5003;50435;43.700;-79.318;2023-02-01T05:41:47;14;11;
64138;PMS5003;50435;43.700;-79.318;2023-02-01T05:44:15;11;10;
64138;PMS5003;50435;43.700;-79.318;2023-02-01T05:46:42;11;11;
64138;PMS5003;50435;43.700;-79.318;2023-02-01T05:49:10;9;9;
64138;PMS5003;50435;43.700;-79.318;2023-02-01T05:51:37;11;11;
64138;PMS5003;50435;43.700;-79.318;2023-02-01T05:54:05;10;9;
64138;PMS5003;50435;43.700;-79.318;2023-02-01T05:56:32;13;13;
64138;PMS5003;50435;43.700;-79.318;2023-02-01T05:59:00;13;10;
64138;PMS5003;50435;43.700;-79.318;2023-02-01T06:01:27;10;10;
64138;PMS5003;50435;43.700;-79.318;2023-02-01T06:03:55;9;9;
64138;PMS5003;50435;43.700;-79.318;2023-02-01T06:06:23;9;9;
64138;PMS5003;50435;43.700;-79.318;2023-02-01T06:08:51;10;10;
64138;PMS5003;50435;43.700;-79.318;2023-02-01T06:11:18;13;10;
64138;PMS5003;50435;43.700;-79.318;2023-02-01T06:13:46;13;12;
64138;PMS5003;50435;43.700;-79.318;2023-02-01T06:16:14;10;10;
64138;PMS5003;50435;43.700;-79.318;2023-02-01T06:18:41;14;14;
64138;PMS5003;50435;43.700;-79.318;2023-02-01T06:21:08;12;9;
64138;PMS5003;50435;43.700;-79.318;2023-02-01T06:23:36;14;12;
64138;PMS5003;50435;43.700;-79.318;2023-02-01T06:26:04;12;12;
64138;PMS5003;50435;43.700;-79.318;2023-02-01T06:28:33;10;10;
64138;PMS5003;50435;43.700;-79.318;2023-02-01T06:31:03;12;12;
64138;PMS5003;50435;43.700;-79.318;2023-02-01T06:33:32;13;13;
64138;PMS5003;50435;43.700;-79.318;2023-02-01T06:36:00;8;8;
64138;PMS5003;50435;43.700;-79.318;2023-02-01T06:38:29;14;13;
64138;PMS5003;50435;43.700;-79.318;2023-02-01T06:40:57;12;10;
64138;PMS5003;50435;43.700;-79.318;2023-02-01T06:43:26;10;10;
64138;PMS5003;50435;43.700;-79.318;2023-02-01T06:45:58;13;13;
64138;PMS5003;50435;43.700;-79.318;2023-02-01T06:48:26;13;13;
64138;PMS5003;50435;43.700;-79.318;2023-02-01T06:50:54;12;10;
64138;PMS5003;50435;43.700;-79.318;2023-02-01T06:53:22;14;10;
64138;PMS5003;50435;43.700;-79.318;2023-02-01T06:55:53;13;9;
64138;PMS5003;50435;43.700;-79.318;2023-02-01T06:58:21;13;10;
64138;PMS5003;50435;43.700;-79.318;2023-02-01T07:00:48;13;13;
64138;PMS5003;50435;43.700;-79.318;2023-02-01T07:03:16;10;10;
64138;PMS5003;50435;43.700;-79.318;2023-02-01T07:05:43;10;10;
64138;PMS5003;50435;43.700;-79.318;2023-02-01T07:08:11;12;12;
64138;PMS5003;50435;43.700;-79.318;2023-02-01T07:10:38;13;13;
64138;PMS5003;50435;43.700;-79.318;2023-02-01T07:13:06;10;10;
64138;PMS5003;50435;43.700;-79.318;2023-02-01T07:15:34;12;12;
64138;PMS5003;50435;43.700;-79.318;2023-02-01T07:18:01;12;12;
64138;PMS5003;50435;43.700;-79.318;2023-02-01T07:20:29;13;12;
64138;PMS5003;50435;43.700;-79.318;2023-02-01T07:22:56;17;13;
64138;PMS5003;50435;43.700;-79.318;2023-02-01T07:25:24;10;10;
64138;PMS5003;50435;43.700;-79.318;2023-02-01T07:27:52;17;13;
64138;PMS5003;50435;43.700;-79.318;2023-02-01T07:30:20;13;12;
64138;PMS5003;50435;43.700;-79.318;2023-02-01T07:32:47;13;13;
64138;PMS5003;50435;43.700;-79.318;2023-02-01T07:35:15;14;14;
64138;PMS5003;50435;43.700;-79.318;2023-02-01T07:37:42;14;13;
64138;PMS5003;50435;43.700;-79.318;2023-02-01T07:40:10;14;13;
64138;PMS5003;50435;43.700;-79.318;2023-02-01T07:42:38;14;13;
64138;PMS5003;50435;43.700;-79.318;2023-02-01T07:45:06;13;13;
64138;PMS5003;50435;43.700;-79.318;2023-02-01T07:47:34;12;12;
64138;PMS5003;50435;43.700;-79.318;2023-02-01T07:50:02;17;14;
64138;PMS5003;50435;43.700;-79.318;2023-02-01T07:52:30;16;13;
64138;PMS5003;50435;43.700;-79.318;2023-02-01T07:54:57;14;14;
64138;PMS5003;50435;43.700;-79.318;2023-02-01T07:57:25;10;10;
64138;PMS5003;50435;43.700;-79.318;2023-02-01T07:59:53;13;13;
64138;PMS5003;50435;43.700;-79.318;2023-02-01T08:02:20;13;13;
64138;PMS5003;50435;43.700;-79.318;2023-02-01T08:04:48;13;13;
64138;PMS5003;50435;43.700;-79.318;2023-02-01T08:07:15;12;12;
64138;PMS5003;50435;43.700;-79.318;2023-02-01T08:09:44;18;12;
64138;PMS5003;50435;43.700;-79.318;2023-02-01T08:12:11;14;14;
64138;PMS5003;50435;43.700;-79.318;2023-02-01T08:14:38;14;14;
64138;PMS5003;50435;43.700;-79.318;2023-02-01T08:17:06;12;12;
64138;PMS5003;50435;43.700;-79.318;2023-02-01T08:19:33;14;13;
64138;PMS5003;50435;43.700;-79.318;2023-02-01T08:22:01;14;14;
64138;PMS5003;50435;43.700;-79.318;2023-02-01T08:24:28;14;13;
64138;PMS5003;50435;43.700;-79.318;2023-02-01T08:26:56;16;16;
64138;PMS5003;50435;43.700;-79.318;2023-02-01T08:29:23;14;14;
64138;PMS5003;50435;43.700;-79.318;2023-02-01T08:31:51;16;16;
64138;PMS5003;50435;43.700;-79.318;2023-02-01T08:34:18;18;18;
64138;PMS5003;50435;43.700;-79.318;2023-02-01T08:36:45;18;16;
64138;PMS5003;50435;43.700;-79.318;2023-02-01T08:39:13;18;14;
64138;PMS5003;50435;43.700;-79.318;2023-02-01T08:41:40;17;16;
64138;PMS5003;50435;43.700;-79.318;2023-02-01T08:44:08;16;16;
64138;PMS5003;50435;43.700;-79.318;2023-02-01T08:46:35;14;14;
64138;PMS5003;50435;43.700;-79.318;2023-02-01T08:49:03;16;16;
64138;PMS5003;50435;43.700;-79.318;2023-02-01T08:51:30;17;17;
64138;PMS5003;50435;43.700;-79.318;2023-02-01T08:53:58;20;18;
64138;PMS5003;50435;43.700;-79.318;2023-02-01T08:56:25;24;21;
64138;PMS5003;50435;43.700;-79.318;2023-02-01T08:58:53;20;19;
64138;PMS5003;50435;43.700;-79.318;2023-02-01T09:01:20;17;17;
64138;PMS5003;50435;43.700;-79.318;2023-02-01T09:03:48;20;20;
64138;PMS5003;50435;43.700;-79.318;2023-02-01T09:06:15;18;18;
64138;PMS5003;50435;43.700;-79.318;2023-02-01T09:08:43;21;21;
64138;PMS5003;50435;43.700;-79.318;2023-02-01T09:11:12;19;19;
64138;PMS5003;50435;43.700;-79.318;2023-02-01T09:13:43;21;20;
64138;PMS5003;50435;43.700;-79.318;2023-02-01T09:16:10;22;20;
64138;PMS5003;50435;43.700;-79.318;2023-02-01T09:18:37;23;21;
64138;PMS5003;50435;43.700;-79.318;2023-02-01T09:21:05;20;19;
64138;PMS5003;50435;43.700;-79.318;2023-02-01T09:23:34;21;20;
64138;PMS5003;50435;43.700;-79.318;2023-02-01T09:26:02;23;20;
64138;PMS5003;50435;43.700;-79.318;2023-02-01T09:28:31;23;23;
64138;PMS5003;50435;43.700;-79.318;2023-02-01T09:30:59;21;17;
64138;PMS5003;50435;43.700;-79.318;2023-02-01T09:33:27;24;20;
64138;PMS5003;50435;43.700;-79.318;2023-02-01T09:35:55;23;23;
64138;PMS5003;50435;43.700;-79.318;2023-02-01T09:38:23;27;25;
64138;PMS5003;50435;43.700;-79.318;2023-02-01T09:40:51;23;23;
64138;PMS5003;50435;43.700;-79.318;2023-02-01T09:43:21;20;20;
64138;PMS5003;50435;43.700;-79.318;2023-02-01T09:46:02;29;29;
64138;PMS5003;50435;43.700;-79.318;2023-02-01T09:48:42;25;25;
64138;PMS5003;50435;43.700;-79.318;2023-02-01T09:51:13;23;21;
64138;PMS5003;50435;43.700;-79.318;2023-02-01T09:53:46;25;25;
64138;PMS5003;50435;43.700;-79.318;2023-02-01T09:56:23;24;24;
64138;PMS5003;50435;43.700;-79.318;2023-02-01T09:58:58;26;26;
64138;PMS5003;50435;43.700;-79.318;2023-02-01T10:01:36;29;24;
64138;PMS5003;50435;43.700;-79.318;2023-02-01T10:04:05;27;25;
64138;PMS5003;50435;43.700;-79.318;2023-02-01T10:06:40;24;24;
64138;PMS5003;50435;43.700;-79.318;2023-02-01T10:09:22;31;25;
64138;PMS5003;50435;43.700;-79.318;2023-02-01T10:12:11;29;25;
64138;PMS5003;50435;43.700;-79.318;2023-02-01T10:15:02;35;28;
64138;PMS5003;50435;43.700;-79.318;2023-02-01T10:17:45;32;28;
64138;PMS5003;50435;43.700;-79.318;2023-02-01T10:20:26;27;25;
64138;PMS5003;50435;43.700;-79.318;2023-02-01T10:23:04;28;28;
64138;PMS5003;50435;43.700;-79.318;2023-02-01T10:25:44;36;31;
64138;PMS5003;50435;43.700;-79.318;2023-02-01T10:28:20;28;27;
64138;PMS5003;50435;43.700;-79.318;2023-02-01T10:30:49;28;28;
64138;PMS5003;50435;43.700;-79.318;2023-02-01T10:33:21;27;27;
64138;PMS5003;50435;43.700;-79.318;2023-02-01T10:35:53;29;29;
64138;PMS5003;50435;43.700;-79.318;2023-02-01T10:38:27;29;28;
64138;PMS5003;50435;43.700;-79.318;2023-02-01T10:40:58;31;29;
64138;PMS5003;50435;43.700;-79.318;2023-02-01T10:43:30;27;23;
64138;PMS5003;50435;43.700;-79.318;2023-02-01T10:45:58;28;28;
64138;PMS5003;50435;43.700;-79.318;2023-02-01T10:48:25;36;31;
64138;PMS5003;50435;43.700;-79.318;2023-02-01T10:50:54;27;25;
64138;PMS5003;50435;43.700;-79.318;2023-02-01T10:53:27;31;29;
64138;PMS5003;50435;43.700;-79.318;2023-02-01T10:56:05;28;24;
64138;PMS5003;50435;43.700;-79.318;2023-02-01T10:58:34;32;30;
64138;PMS5003;50435;43.700;-79.318;2023-02-01T11:01:03;35;34;
64138;PMS5003;50435;43.700;-79.318;2023-02-01T11:03:34;28;28;
64138;PMS5003;50435;43.700;-79.318;2023-02-01T11:06:09;39;35;
64138;PMS5003;50435;43.700;-79.318;2023-02-01T11:08:42;32;32;
64138;PMS5003;50435;43.700;-79.318;2023-02-01T11:11:12;39;34;
64138;PMS5003;50435;43.700;-79.318;2023-02-01T11:13:41;38;35;
64138;PMS5003;50435;43.700;-79.318;2023-02-01T11:16:11;32;30;
64138;PMS5003;50435;43.700;-79.318;2023-02-01T11:18:41;35;31;
64138;PMS5003;50435;43.700;-79.318;2023-02-01T11:21:08;35;34;
64138;PMS5003;50435;43.700;-79.318;2023-02-01T11:23:40;35;31;
64138;PMS5003;50435;43.700;-79.318;2023-02-01T11:26:12;32;30;
64138;PMS5003;50435;43.700;-79.318;2023-02-01T11:28:48;38;32;
64138;PMS5003;50435;43.700;-79.318;2023-02-01T11:31:20;38;34;
64138;PMS5003;50435;43.700;-79.318;2023-02-01T11:33:51;35;31;
64138;PMS5003;50435;43.700;-79.318;2023-02-01T11:36:21;35;34;
64138;PMS5003;50435;43.700;-79.318;2023-02-01T11:38:54;37;31;
64138;PMS5003;50435;43.700;-79.318;2023-02-01T11:41:40;35;35;
64138;PMS5003;50435;43.700;-79.318;2023-02-01T11:44:18;34;34;
64138;PMS5003;50435;43.700;-79.318;2023-02-01T11:46:48;36;30;
64138;PMS5003;50435;43.700;-79.318;2023-02-01T11:49:20;35;31;
64138;PMS5003;50435;43.700;-79.318;2023-02-01T11:51:53;34;32;
64138;PMS5003;50435;43.700;-79.318;2023-02-01T11:54:40;35;28;
64138;PMS5003;50435;43.700;-79.318;2023-02-01T11:57:22;39;34;
64138;PMS5003;50435;43.700;-79.318;2023-02-01T12:00:06;35;34;
64138;PMS5003;50435;43.700;-79.318;2023-02-01T12:02:51;28;28;
64138;PMS5003;50435;43.700;-79.318;2023-02-01T12:05:34;43;39;
64138;PMS5003;50435;43.700;-79.318;2023-02-01T12:08:16;34;32;
64138;PMS5003;50435;43.700;-79.318;2023-02-01T12:11:05;32;28;
64138;PMS5003;50435;43.700;-79.318;2023-02-01T12:13:51;39;39;
64138;PMS5003;50435;43.700;-79.318;2023-02-01T12:16:28;31;31;
64138;PMS5003;50435;43.700;-79.318;2023-02-01T12:19:20;36;32;
64138;PMS5003;50435;43.700;-79.318;2023-02-01T12:22:00;42;36;
64138;PMS5003;50435;43.700;-79.318;2023-02-01T12:24:47;29;29;
64138;PMS5003;50435;43.700;-79.318;2023-02-01T12:27:30;31;29;
64138;PMS5003;50435;43.700;-79.318;2023-02-01T12:30:17;31;27;
64138;PMS5003;50435;43.700;-79.318;2023-02-01T12:33:03;38;32;
64138;PMS5003;50435;43.700;-79.318;2023-02-01T12:35:47;36;35;
64138;PMS5003;50435;43.700;-79.318;2023-02-01T12:38:28;43;29;
64138;PMS5003;50435;43.700;-79.318;2023-02-01T12:41:12;34;32;
64138;PMS5003;50435;43.700;-79.318;2023-02-01T12:43:53;40;38;
64138;PMS5003;50435;43.700;-79.318;2023-02-01T12:46:25;39;38;
64138;PMS5003;50435;43.700;-79.318;2023-02-01T12:48:57;28;28;
64138;PMS5003;50435;43.700;-79.318;2023-02-01T12:51:29;35;33;
64138;PMS5003;50435;43.700;-79.318;2023-02-01T12:54:04;28;28;
64138;PMS5003;50435;43.700;-79.318;2023-02-01T12:56:43;35;29;
64138;PMS5003;50435;43.700;-79.318;2023-02-01T12:59:17;35;33;
64138;PMS5003;50435;43.700;-79.318;2023-02-01T13:01:53;32;31;
64138;PMS5003;50435;43.700;-79.318;2023-02-01T13:04:25;29;29;
64138;PMS5003;50435;43.700;-79.318;2023-02-01T13:06:57;35;32;
64138;PMS5003;50435;43.700;-79.318;2023-02-01T13:09:34;32;32;
64138;PMS5003;50435;43.700;-79.318;2023-02-01T13:12:07;32;28;
64138;PMS5003;50435;43.700;-79.318;2023-02-01T13:14:42;32;31;
64138;PMS5003;50435;43.700;-79.318;2023-02-01T13:17:14;29;29;
64138;PMS5003;50435;43.700;-79.318;2023-02-01T13:19:47;28;28;
64138;PMS5003;50435;43.700;-79.318;2023-02-01T13:22:20;35;31;
64138;PMS5003;50435;43.700;-79.318;2023-02-01T13:24:53;32;28;
64138;PMS5003;50435;43.700;-79.318;2023-02-01T13:27:23;28;24;
64138;PMS5003;50435;43.700;-79.318;2023-02-01T13:29:56;29;25;
64138;PMS5003;50435;43.700;-79.318;2023-02-01T13:32:31;28;28;
64138;PMS5003;50435;43.700;-79.318;2023-02-01T13:35:33;29;28;
64138;PMS5003;50435;43.700;-79.318;2023-02-01T13:35:48;29;28;
64138;PMS5003;50435;43.700;-79.318;2023-02-01T13:38:38;33;29;
64138;PMS5003;50435;43.700;-79.318;2023-02-01T13:41:23;25;25;
64138;PMS5003;50435;43.700;-79.318;2023-02-01T13:43:54;29;28;
64138;PMS5003;50435;43.700;-79.318;2023-02-01T13:46:25;32;29;
64138;PMS5003;50435;43.700;-79.318;2023-02-01T13:48:55;25;24;
64138;PMS5003;50435;43.700;-79.318;2023-02-01T13:51:33;24;24;
64138;PMS5003;50435;43.700;-79.318;2023-02-01T13:54:03;37;28;
64138;PMS5003;50435;43.700;-79.318;2023-02-01T13:56:39;31;29;
64138;PMS5003;50435;43.700;-79.318;2023-02-01T14:01:33;27;27;
64138;PMS5003;50435;43.700;-79.318;2023-02-01T14:04:02;29;29;
64138;PMS5003;50435;43.700;-79.318;2023-02-01T14:06:36;30;30;
64138;PMS5003;50435;43.700;-79.318;2023-02-01T14:09:11;33;29;
64138;PMS5003;50435;43.700;-79.318;2023-02-01T14:11:41;25;24;
64138;PMS5003;50435;43.700;-79.318;2023-02-01T14:14:43;29;25;
64138;PMS5003;50435;43.700;-79.318;2023-02-01T14:17:32;33;31;
64138;PMS5003;50435;43.700;-79.318;2023-02-01T14:20:39;31;29;
64138;PMS5003;50435;43.700;-79.318;2023-02-01T14:23:11;31;31;
64138;PMS5003;50435;43.700;-79.318;2023-02-01T14:25:40;28;26;
64138;PMS5003;50435;43.700;-79.318;2023-02-01T14:28:10;30;30;
64138;PMS5003;50435;43.700;-79.318;2023-02-01T14:30:46;25;25;
64138;PMS5003;50435;43.700;-79.318;2023-02-01T14:33:18;28;28;
64138;PMS5003;50435;43.700;-79.318;2023-02-01T14:36:05;33;29;
64138;PMS5003;50435;43.700;-79.318;2023-02-01T14:38:37;28;28;
64138;PMS5003;50435;43.700;-79.318;2023-02-01T14:41:23;32;26;
64138;PMS5003;50435;43.700;-79.318;2023-02-01T14:44:13;30;30;
64138;PMS5003;50435;43.700;-79.318;2023-02-01T14:47:27;32;26;
64138;PMS5003;50435;43.700;-79.318;2023-02-01T14:49:59;38;32;
64138;PMS5003;50435;43.700;-79.318;2023-02-01T14:52:37;28;26;
64138;PMS5003;50435;43.700;-79.318;2023-02-01T14:55:09;30;30;
64138;PMS5003;50435;43.700;-79.318;2023-02-01T14:57:42;33;33;
64138;PMS5003;50435;43.700;-79.318;2023-02-01T15:00:22;24;24;
64138;PMS5003;50435;43.700;-79.318;2023-02-01T15:02:53;33;29;
64138;PMS5003;50435;43.700;-79.318;2023-02-01T15:05:24;30;28;
64138;PMS5003;50435;43.700;-79.318;2023-02-01T15:07:54;29;26;
64138;PMS5003;50435;43.700;-79.318;2023-02-01T15:10:24;31;29;
64138;PMS5003;50435;43.700;-79.318;2023-02-01T15:12:53;25;25;
64138;PMS5003;50435;43.700;-79.318;2023-02-01T15:15:22;33;30;
64138;PMS5003;50435;43.700;-79.318;2023-02-01T15:17:51;29;29;
64138;PMS5003;50435;43.700;-79.318;2023-02-01T15:20:20;29;25;
64138;PMS5003;50435;43.700;-79.318;2023-02-01T15:22:53;33;33;
64138;PMS5003;50435;43.700;-79.318;2023-02-01T15:25:23;30;26;
64138;PMS5003;50435;43.700;-79.318;2023-02-01T15:27:53;24;22;
64138;PMS5003;50435;43.700;-79.318;2023-02-01T15:30:21;28;25;
64138;PMS5003;50435;43.700;-79.318;2023-02-01T15:32:51;26;26;
64138;PMS5003;50435;43.700;-79.318;2023-02-01T15:35:32;24;22;
64138;PMS5003;50435;43.700;-79.318;2023-02-01T15:38:48;29;29;
64138;PMS5003;50435;43.700;-79.318;2023-02-01T15:41:37;35;27;
64138;PMS5003;50435;43.700;-79.318;2023-02-01T15:44:10;27;26;
64138;PMS5003;50435;43.700;-79.318;2023-02-01T15:46:45;25;25;
64138;PMS5003;50435;43.700;-79.318;2023-02-01T15:49:18;29;26;
64138;PMS5003;50435;43.700;-79.318;2023-02-01T15:51:50;25;22;
64138;PMS5003;50435;43.700;-79.318;2023-02-01T15:54:22;25;25;
64138;PMS5003;50435;43.700;-79.318;2023-02-01T15:56:53;26;26;
64138;PMS5003;50435;43.700;-79.318;2023-02-01T15:59:22;30;29;
64138;PMS5003;50435;43.700;-79.318;2023-02-01T16:01:56;30;27;
64138;PMS5003;50435;43.700;-79.318;2023-02-01T16:04:24;27;26;
64138;PMS5003;50435;43.700;-79.318;2023-02-01T16:06:53;34;26;
64138;PMS5003;50435;43.700;-79.318;2023-02-01T16:09:23;30;30;
64138;PMS5003;50435;43.700;-79.318;2023-02-01T16:11:54;27;26;
64138;PMS5003;50435;43.700;-79.318;2023-02-01T16:14:24;26;25;
64138;PMS5003;50435;43.700;-79.318;2023-02-01T16:16:53;27;23;
64138;PMS5003;50435;43.700;-79.318;2023-02-01T16:19:22;31;30;